Time;durP1;ratioP1;P1;durP2;ratioP2;P2;SDS_P1;SDS_P2;PMS_P1;PMS_P2;Temp;Humidity;BMP_temperature;BMP_pressure;BME280_temperature;BME280_humidity;BME280_pressure;Samples;Min_cycle;Max_cycle;Signal;HPM_P1;HPM_P2
2021/04/22 00:02:22;;;;;;;13.53;11.15;;;;;;;8.95;68.07;96207.95;1774694;79;21148;-79
2021/04/22 00:04:48;;;;;;;16.95;12.30;;;;;;;8.97;67.87;96212.47;1789705;78;21242;-79
2021/04/22 00:07:18;;;;;;;20.45;16.77;;;;;;;8.98;67.66;96212.28;1798586;78;21146;-79
2021/04/22 00:09:46;;;;;;;24.00;18.37;;;;;;;8.96;67.61;96218.63;1793233;78;21131;-79
2021/04/22 00:12:13;;;;;;;32.35;24.30;;;;;;;8.92;67.64;96222.04;1795160;78;21309;-80
2021/04/22 00:14:41;;;;;;;25.48;19.27;;;;;;;8.88;67.71;96221.28;1801199;78;21094;-77
2021/04/22 00:17:11;;;;;;;16.70;13.20;;;;;;;8.87;67.88;96221.77;1803261;78;21104;-77
2021/04/22 00:19:37;;;;;;;14.78;11.95;;;;;;;8.87;68.32;96220.47;1795433;78;21148;-77
2021/04/22 00:22:04;;;;;;;18.70;14.90;;;;;;;8.84;68.17;96216.94;1796345;78;21057;-77
2021/04/22 00:24:32;;;;;;;22.65;16.10;;;;;;;8.83;68.27;96217.92;1794124;78;21296;-78
2021/04/22 00:26:59;;;;;;;17.32;14.13;;;;;;;8.80;68.39;96215.69;1803646;78;21123;-79
2021/04/22 00:29:25;;;;;;;19.92;15.95;;;;;;;8.75;68.50;96214.58;1804592;78;21100;-80
2021/04/22 00:31:51;;;;;;;20.37;14.93;;;;;;;8.71;68.71;96212.83;1794236;77;21132;-78
2021/04/22 00:34:17;;;;;;;18.92;15.53;;;;;;;8.67;68.83;96210.28;1797840;78;21120;-78
2021/04/22 00:36:43;;;;;;;19.02;14.25;;;;;;;8.61;68.85;96207.88;1793658;78;21309;-77
2021/04/22 00:39:09;;;;;;;17.70;14.95;;;;;;;8.56;68.92;96210.67;1803530;78;21305;-77
2021/04/22 00:41:35;;;;;;;15.38;12.15;;;;;;;8.52;68.93;96209.41;1796055;78;21109;-79
2021/04/22 00:44:01;;;;;;;15.43;13.15;;;;;;;8.51;69.15;96207.32;1797702;78;21101;-80
2021/04/22 00:46:26;;;;;;;13.18;10.63;;;;;;;8.48;69.25;96205.08;1795990;78;21104;-80
2021/04/22 00:48:53;;;;;;;14.65;12.58;;;;;;;8.45;69.45;96202.00;1742615;79;21085;-78
2021/04/22 00:51:19;;;;;;;14.93;12.00;;;;;;;8.42;69.46;96201.86;1798959;78;21332;-77
2021/04/22 00:53:45;;;;;;;17.82;12.28;;;;;;;8.39;69.68;96206.09;1768368;79;21088;-78
2021/04/22 00:56:11;;;;;;;47.40;29.07;;;;;;;8.35;69.97;96200.47;1769719;78;21146;-77
2021/04/22 00:58:37;;;;;;;33.92;22.00;;;;;;;8.31;69.74;96195.78;1773944;79;21327;-77
2021/04/22 01:01:03;;;;;;;34.83;21.30;;;;;;;8.29;69.69;96202.89;1791805;78;21212;-79
2021/04/22 01:03:30;;;;;;;38.70;23.05;;;;;;;8.30;69.85;96198.05;1787946;78;21436;-79
2021/04/22 01:06:03;;;;;;;39.83;25.23;;;;;;;8.30;69.78;96198.86;1779184;78;21433;-80
2021/04/22 01:08:29;;;;;;;42.17;26.00;;;;;;;8.34;69.78;96201.94;1769360;78;21123;-80
2021/04/22 01:10:56;;;;;;;26.82;20.23;;;;;;;8.36;69.64;96202.08;1794491;78;21307;-79
2021/04/22 01:13:22;;;;;;;26.73;20.10;;;;;;;8.37;69.69;96201.09;1786365;78;21410;-80
2021/04/22 01:15:52;;;;;;;33.00;21.50;;;;;;;8.35;69.76;96204.34;1795274;78;21110;-79
2021/04/22 01:18:18;;;;;;;29.30;21.02;;;;;;;8.36;69.95;96202.08;1803298;78;21258;-79
2021/04/22 01:20:50;;;;;;;36.13;24.98;;;;;;;8.35;70.04;96203.55;1802636;78;21094;-79
2021/04/22 01:23:18;;;;;;;49.88;34.18;;;;;;;8.34;70.10;96199.34;1798399;78;21091;-79
2021/04/22 01:25:48;;;;;;;32.10;23.47;;;;;;;8.28;70.60;96189.14;1802376;78;21104;-79
2021/04/22 01:28:15;;;;;;;26.42;21.42;;;;;;;8.28;70.82;96190.44;1733815;81;21088;-79
2021/04/22 01:30:45;;;;;;;64.72;47.17;;;;;;;8.32;71.07;96198.20;1797134;78;21087;-79
2021/04/22 01:33:15;;;;;;;67.45;42.35;;;;;;;8.43;70.59;96202.18;1797773;79;21120;-79
2021/04/22 01:35:43;;;;;;;104.58;59.50;;;;;;;8.59;70.47;96193.49;1791996;78;21103;-79
2021/04/22 01:38:11;;;;;;;56.10;31.25;;;;;;;8.67;70.32;96199.42;1793097;78;21135;-77
2021/04/22 01:40:39;;;;;;;42.90;26.02;;;;;;;8.72;70.05;96201.48;1788084;78;21106;-79
2021/04/22 01:43:05;;;;;;;29.20;19.02;;;;;;;8.77;70.29;96196.58;1795461;78;21125;-79
2021/04/22 01:45:32;;;;;;;38.63;28.47;;;;;;;8.77;70.31;96204.84;1795914;78;21073;-78
2021/04/22 01:47:58;;;;;;;29.10;23.25;;;;;;;8.78;69.97;96205.16;1799563;78;21127;-77
2021/04/22 01:50:27;;;;;;;19.52;17.02;;;;;;;8.83;69.95;96205.45;1792879;78;21089;-77
2021/04/22 01:52:54;;;;;;;12.82;11.53;;;;;;;8.88;69.98;96204.44;1770009;78;21132;-77
2021/04/22 01:55:30;;;;;;;11.45;9.50;;;;;;;8.94;69.96;96201.94;1791250;78;21099;-78
2021/04/22 01:57:56;;;;;;;9.33;8.33;;;;;;;8.98;69.85;96198.53;1793289;78;21248;-78
2021/04/22 02:00:36;;;;;;;12.58;10.38;;;;;;;9.02;69.52;96195.40;1803642;78;21191;-77
2021/04/22 02:03:04;;;;;;;13.13;10.13;;;;;;;9.11;69.44;96203.08;1728976;81;21347;-77
2021/04/22 02:05:31;;;;;;;23.35;19.42;;;;;;;9.16;69.72;96216.34;1752909;80;21106;-78
2021/04/22 02:07:57;;;;;;;27.15;21.68;;;;;;;9.05;69.53;96216.27;1718887;82;21103;-77
2021/04/22 02:10:23;;;;;;;28.45;22.87;;;;;;;8.97;69.71;96219.75;1712869;81;21859;-78
2021/04/22 02:12:49;;;;;;;29.80;23.02;;;;;;;8.91;70.92;96213.95;1799297;78;21061;-79
2021/04/22 02:15:21;;;;;;;25.77;20.48;;;;;;;8.83;71.36;96208.85;1795349;78;21232;-80
2021/04/22 02:17:48;;;;;;;26.17;21.48;;;;;;;8.79;72.07;96191.25;1802381;78;21097;-79
2021/04/22 02:20:15;;;;;;;24.87;20.27;;;;;;;8.71;72.18;96189.02;1794877;78;21156;-79
2021/04/22 02:22:41;;;;;;;19.92;16.95;;;;;;;8.69;72.64;96194.88;1792115;78;21162;-79
2021/04/22 02:25:10;;;;;;;15.18;13.38;;;;;;;8.66;72.99;96192.64;1796076;78;21141;-79
2021/04/22 02:27:38;;;;;;;14.10;11.85;;;;;;;8.56;72.91;96191.25;1790834;78;21309;-79
2021/04/22 02:30:21;;;;;;;16.15;13.32;;;;;;;8.49;73.37;96183.88;1799253;78;21094;-79
2021/04/22 02:32:50;;;;;;;14.28;12.43;;;;;;;8.42;73.33;96183.25;1801246;78;21210;-79
2021/04/22 02:35:19;;;;;;;11.85;10.75;;;;;;;8.32;73.47;96186.55;1792792;78;21110;-79
2021/04/22 02:37:45;;;;;;;11.83;10.68;;;;;;;8.24;73.56;96182.70;1786421;78;21115;-80
2021/04/22 02:40:16;;;;;;;14.30;11.90;;;;;;;8.15;73.54;96187.63;1784755;78;21316;-78
2021/04/22 02:42:42;;;;;;;12.70;11.38;;;;;;;8.04;73.31;96182.34;1784412;78;21257;-77
2021/04/22 02:45:13;;;;;;;13.88;12.47;;;;;;;7.96;73.54;96181.57;1797348;78;21322;-77
2021/04/22 02:47:39;;;;;;;17.07;14.85;;;;;;;7.89;73.58;96176.77;1804106;78;21307;-77
2021/04/22 02:50:09;;;;;;;13.18;11.88;;;;;;;7.74;73.51;96178.77;1792632;78;21108;-77
2021/04/22 02:52:35;;;;;;;16.67;14.38;;;;;;;7.66;73.70;96183.19;1789384;78;21092;-77
2021/04/22 02:55:02;;;;;;;15.00;12.40;;;;;;;7.57;73.55;96177.72;1798949;78;21267;-77
2021/04/22 02:57:27;;;;;;;14.15;12.65;;;;;;;7.56;73.67;96183.37;1793590;78;21074;-77
2021/04/22 02:59:54;;;;;;;17.55;14.05;;;;;;;7.57;73.71;96184.98;1791013;78;21116;-77
2021/04/22 03:02:20;;;;;;;13.23;11.83;;;;;;;7.55;73.67;96180.97;1795966;78;21309;-77
2021/04/22 03:04:46;;;;;;;13.55;12.07;;;;;;;7.55;73.85;96183.06;1794379;78;21239;-77
2021/04/22 03:07:12;;;;;;;14.05;12.60;;;;;;;7.53;73.82;96184.52;1790909;78;21097;-77
2021/04/22 03:09:38;;;;;;;15.35;10.53;;;;;;;7.49;73.83;96185.84;1795685;78;21107;-79
2021/04/22 03:12:07;;;;;;;11.73;9.68;;;;;;;7.47;73.84;96185.17;1785156;78;21112;-79
2021/04/22 03:14:33;;;;;;;10.72;9.03;;;;;;;7.50;73.79;96180.98;1794756;78;21111;-79
2021/04/22 03:16:59;;;;;;;12.45;10.90;;;;;;;7.50;73.78;96178.89;1794987;78;21114;-79
2021/04/22 03:19:25;;;;;;;9.88;8.53;;;;;;;7.46;73.68;96182.27;1794369;78;21219;-79
2021/04/22 03:21:51;;;;;;;12.88;10.72;;;;;;;7.46;73.80;96180.17;1796544;78;21195;-78
2021/04/22 03:24:17;;;;;;;13.93;12.53;;;;;;;7.45;73.82;96183.24;1764707;79;21116;-77
2021/04/22 03:26:44;;;;;;;11.68;10.48;;;;;;;7.50;73.90;96180.19;1783856;79;21078;-78
2021/04/22 03:29:10;;;;;;;42.60;28.62;;;;;;;7.52;73.66;96179.52;1777062;79;21244;-77
2021/04/22 03:31:36;;;;;;;21.82;16.87;;;;;;;7.54;73.60;96178.86;1745250;79;21141;-77
2021/04/22 03:34:03;;;;;;;12.50;10.68;;;;;;;7.53;73.61;96182.42;1775832;79;21385;-77
2021/04/22 03:36:28;;;;;;;11.75;10.13;;;;;;;7.51;73.62;96185.67;1775000;79;21341;-79
2021/04/22 03:38:54;;;;;;;12.00;10.70;;;;;;;7.49;73.67;96192.79;1772439;79;21125;-79
2021/04/22 03:41:22;;;;;;;13.62;11.65;;;;;;;7.44;73.53;96192.46;1765663;78;21314;-79
2021/04/22 03:43:48;;;;;;;10.70;9.60;;;;;;;7.42;73.65;96192.63;1768950;79;21193;-79
2021/04/22 03:46:14;;;;;;;12.10;8.70;;;;;;;7.44;73.66;96190.68;1773962;79;21066;-79
2021/04/22 03:48:39;;;;;;;12.10;10.80;;;;;;;7.47;73.72;96190.34;1782216;79;22514;-79
2021/04/22 03:51:05;;;;;;;11.20;10.10;;;;;;;7.47;73.55;96198.09;1776357;79;21099;-79
2021/04/22 03:53:32;;;;;;;12.07;10.48;;;;;;;7.50;73.76;96191.81;1777318;79;21126;-79
2021/04/22 03:55:58;;;;;;;12.80;11.00;;;;;;;7.52;73.77;96197.63;1772960;79;21101;-79
2021/04/22 03:58:24;;;;;;;10.80;9.70;;;;;;;7.50;73.76;96193.91;1778374;79;21092;-79
2021/04/22 04:00:50;;;;;;;12.98;11.57;;;;;;;7.50;73.82;96197.79;1771915;79;21267;-79
2021/04/22 04:03:16;;;;;;;12.98;11.00;;;;;;;7.56;73.91;96196.80;1780077;79;21133;-78
2021/04/22 04:05:42;;;;;;;12.88;11.53;;;;;;;7.64;73.77;96201.92;1777151;79;21272;-77
2021/04/22 04:08:08;;;;;;;12.03;10.72;;;;;;;7.72;73.56;96200.61;1772737;79;21432;-78
2021/04/22 04:10:34;;;;;;;13.38;11.65;;;;;;;7.80;73.43;96203.14;1767942;79;21094;-78
2021/04/22 04:13:00;;;;;;;15.05;12.35;;;;;;;7.85;73.30;96206.05;1755949;79;21123;-77
2021/04/22 04:15:26;;;;;;;13.55;11.05;;;;;;;7.92;73.34;96204.39;1773506;79;21078;-77
2021/04/22 04:17:55;;;;;;;12.43;11.18;;;;;;;7.98;73.40;96208.10;1781075;79;21105;-77
2021/04/22 04:20:21;;;;;;;12.93;11.63;;;;;;;7.98;73.08;96212.79;1773275;79;21201;-79
2021/04/22 04:22:47;;;;;;;12.78;11.33;;;;;;;8.03;73.06;96214.38;1775500;79;21202;-80
2021/04/22 04:25:14;;;;;;;13.50;10.95;;;;;;;8.05;73.05;96214.20;1779492;79;21454;-79
2021/04/22 04:27:40;;;;;;;12.68;11.20;;;;;;;8.09;73.22;96215.47;1784896;78;21202;-79
2021/04/22 04:30:08;;;;;;;11.73;10.58;;;;;;;8.12;72.88;96217.70;1799244;78;21116;-79
2021/04/22 04:32:34;;;;;;;12.80;10.82;;;;;;;8.16;72.76;96220.78;1786238;78;21137;-77
2021/04/22 04:35:00;;;;;;;13.30;10.78;;;;;;;8.14;72.58;96224.84;1792578;78;21212;-77
2021/04/22 04:37:26;;;;;;;11.38;10.05;;;;;;;8.15;72.63;96234.22;1790503;78;21104;-77
2021/04/22 04:39:52;;;;;;;23.42;19.62;;;;;;;8.20;72.55;96249.22;1802142;78;21237;-77
2021/04/22 04:42:18;;;;;;;55.98;44.98;;;;;;;8.20;72.23;96247.44;1791187;78;21231;-77
2021/04/22 04:44:59;;;;;;;19.87;17.30;;;;;;;8.23;72.25;96250.98;1786500;79;21085;-78
2021/04/22 04:47:25;;;;;;;16.52;12.98;;;;;;;8.25;72.10;96266.34;1792852;78;21096;-77
2021/04/22 04:49:51;;;;;;;19.12;15.95;;;;;;;8.24;72.29;96275.89;1786530;79;21132;-77
2021/04/22 04:52:17;;;;;;;17.12;15.23;;;;;;;8.25;72.20;96280.08;1793818;78;21064;-77
2021/04/22 04:54:44;;;;;;;20.37;16.32;;;;;;;8.26;72.22;96289.95;1797353;78;21221;-77
2021/04/22 04:57:10;;;;;;;19.75;17.42;;;;;;;8.30;72.10;96293.34;1793274;78;21309;-77
2021/04/22 04:59:36;;;;;;;24.25;21.00;;;;;;;8.30;72.17;96293.84;1799013;78;21818;-77
2021/04/22 05:02:03;;;;;;;43.92;36.77;;;;;;;8.30;72.23;96297.72;1798727;78;21896;-77
2021/04/22 05:04:31;;;;;;;44.77;36.65;;;;;;;8.27;72.28;96304.02;1794104;78;21085;-79
2021/04/22 05:06:57;;;;;;;40.10;31.33;;;;;;;8.26;72.18;96299.01;1785924;78;21167;-79
2021/04/22 05:09:22;;;;;;;35.63;29.05;;;;;;;8.23;72.14;96304.53;1797148;78;21107;-79
2021/04/22 05:11:49;;;;;;;31.30;27.37;;;;;;;8.22;72.16;96311.48;1796283;78;21087;-79
2021/04/22 05:14:15;;;;;;;29.92;26.75;;;;;;;8.23;72.17;96311.80;1788511;78;21392;-79
2021/04/22 05:16:41;;;;;;;22.80;19.27;;;;;;;8.26;72.17;96315.34;1807439;78;21093;-79
2021/04/22 05:19:07;;;;;;;25.48;21.33;;;;;;;8.29;71.90;96316.78;1790781;78;21136;-79
2021/04/22 05:21:34;;;;;;;19.30;17.17;;;;;;;8.32;71.92;96318.58;1793732;78;21080;-79
2021/04/22 05:24:05;;;;;;;22.10;19.73;;;;;;;8.36;71.76;96319.87;1789898;78;21071;-79
2021/04/22 05:26:31;;;;;;;23.35;20.52;;;;;;;8.40;71.82;96323.73;1783385;78;21129;-78
2021/04/22 05:28:57;;;;;;;23.57;18.90;;;;;;;8.47;71.78;96320.48;1767652;79;21063;-78
2021/04/22 05:31:23;;;;;;;24.40;19.82;;;;;;;8.49;71.49;96330.17;1760906;79;21834;-77
2021/04/22 05:33:49;;;;;;;23.77;20.10;;;;;;;8.51;71.28;96329.03;1758354;79;21242;-77
2021/04/22 05:36:15;;;;;;;29.70;21.48;;;;;;;8.57;71.28;96330.92;1768067;79;21309;-77
2021/04/22 05:38:41;;;;;;;29.90;26.68;;;;;;;8.65;71.12;96329.60;1766595;80;21578;-77
2021/04/22 05:41:07;;;;;;;21.40;19.12;;;;;;;8.78;71.17;96329.02;1748706;80;21403;-77
2021/04/22 05:43:33;;;;;;;18.50;14.60;;;;;;;8.87;70.75;96339.66;1759037;80;21083;-77
2021/04/22 05:46:00;;;;;;;18.07;15.25;;;;;;;8.96;70.47;96340.43;1761502;79;21098;-77
2021/04/22 05:48:26;;;;;;;18.17;13.58;;;;;;;9.04;70.39;96345.54;1758232;80;21215;-77
2021/04/22 05:50:52;;;;;;;17.87;13.62;;;;;;;9.10;70.05;96350.52;1758513;80;21300;-77
2021/04/22 05:53:18;;;;;;;16.97;14.38;;;;;;;9.12;70.10;96349.87;1753058;80;21115;-77
2021/04/22 05:55:44;;;;;;;19.15;14.23;;;;;;;9.18;70.40;96356.45;1759909;80;21106;-78
2021/04/22 05:58:11;;;;;;;20.35;14.53;;;;;;;9.21;70.06;96360.00;1769918;79;21107;-79
2021/04/22 06:00:37;;;;;;;18.45;14.28;;;;;;;9.20;69.71;96356.28;1767763;80;21245;-78
2021/04/22 06:03:04;;;;;;;18.17;15.00;;;;;;;9.20;69.36;96363.57;1750796;79;21142;-77
2021/04/22 06:05:30;;;;;;;19.40;14.65;;;;;;;9.24;69.69;96365.32;1747948;80;21564;-77
2021/04/22 06:07:59;;;;;;;19.87;14.50;;;;;;;9.24;69.24;96362.73;1767539;80;21137;-80
2021/04/22 06:10:25;;;;;;;17.67;15.45;;;;;;;9.20;69.17;96366.16;1752746;80;21209;-77
2021/04/22 06:12:52;;;;;;;17.23;12.25;;;;;;;9.15;69.11;96365.08;1754997;80;21098;-77
2021/04/22 06:15:19;;;;;;;16.70;13.68;;;;;;;9.12;69.04;96371.91;1748851;80;21130;-77
2021/04/22 06:17:45;;;;;;;20.60;16.55;;;;;;;9.07;68.54;96378.08;1759175;80;21084;-79
2021/04/22 06:20:18;;;;;;;21.80;17.82;;;;;;;8.98;69.01;96372.96;1752284;80;21106;-78
2021/04/22 06:22:45;;;;;;;18.00;14.65;;;;;;;8.99;69.30;96377.66;1756850;81;21121;-76
2021/04/22 06:25:12;;;;;;;21.75;17.50;;;;;;;8.97;68.92;96379.62;1739702;80;21109;-79
2021/04/22 06:27:38;;;;;;;19.98;17.10;;;;;;;8.94;69.74;96383.33;1776096;78;21055;-76
2021/04/22 06:30:06;;;;;;;21.23;17.10;;;;;;;8.93;69.75;96380.42;1793856;78;21342;-80
2021/04/22 06:32:34;;;;;;;19.60;16.77;;;;;;;8.94;70.08;96381.23;1759914;79;21335;-77
2021/04/22 06:35:00;;;;;;;51.45;34.08;;;;;;;8.93;70.22;96393.38;1777477;78;21569;-77
2021/04/22 06:37:29;;;;;;;102.53;81.60;;;;;;;8.89;70.33;96392.11;1781038;79;21096;-78
2021/04/22 06:40:00;;;;;;;91.63;82.02;;;;;;;8.71;70.54;96376.02;1743224;80;21112;-78
2021/04/22 06:42:29;;;;;;;36.17;29.42;;;;;;;8.81;70.47;96401.73;1771670;79;21071;-78
2021/04/22 06:44:56;;;;;;;77.32;52.90;;;;;;;8.70;70.16;96408.89;1792593;79;21116;-78
2021/04/22 06:47:22;;;;;;;47.33;36.25;;;;;;;8.65;70.30;96416.38;1783950;78;21124;-78
2021/04/22 06:49:49;;;;;;;58.25;43.42;;;;;;;8.65;70.51;96419.45;1790153;79;21057;-79
2021/04/22 06:52:16;;;;;;;38.55;26.65;;;;;;;8.61;70.55;96420.25;1792890;79;21308;-77
2021/04/22 06:54:43;;;;;;;45.38;34.73;;;;;;;8.55;70.72;96429.20;1793513;78;21073;-77
2021/04/22 06:57:09;;;;;;;33.65;26.85;;;;;;;8.51;70.73;96434.39;1783487;78;21136;-78
2021/04/22 06:59:35;;;;;;;28.35;21.02;;;;;;;8.44;70.71;96438.12;1777531;78;21131;-79
2021/04/22 07:02:01;;;;;;;29.30;23.75;;;;;;;8.37;70.86;96438.48;1784163;78;21323;-77
2021/04/22 07:04:27;;;;;;;27.02;21.68;;;;;;;8.29;70.80;96442.34;1784865;78;21347;-80
2021/04/22 07:06:57;;;;;;;26.77;22.02;;;;;;;8.23;70.97;96439.13;1779660;78;21100;-77
2021/04/22 07:09:23;;;;;;;28.20;23.90;;;;;;;8.22;70.94;96438.81;1788339;78;21092;-78
2021/04/22 07:11:49;;;;;;;28.38;24.27;;;;;;;8.19;71.15;96445.12;1797786;78;21116;-78
2021/04/22 07:14:15;;;;;;;32.78;24.35;;;;;;;8.19;71.17;96444.32;1792847;78;21120;-78
2021/04/22 07:16:41;;;;;;;29.82;24.65;;;;;;;8.13;71.20;96441.43;1788377;79;21112;-79
2021/04/22 07:19:08;;;;;;;32.58;25.60;;;;;;;8.07;71.45;96446.44;1789563;78;21069;-77
2021/04/22 07:21:34;;;;;;;28.87;23.95;;;;;;;8.01;71.55;96453.09;1794520;78;21085;-76
2021/04/22 07:24:00;;;;;;;27.95;24.27;;;;;;;7.97;71.79;96454.39;1776462;78;21104;-77
2021/04/22 07:26:26;;;;;;;29.42;23.00;;;;;;;7.93;71.95;96458.74;1762090;78;21163;-76
2021/04/22 07:28:52;;;;;;;29.02;22.87;;;;;;;7.89;71.87;96469.91;1788779;78;21157;-77
2021/04/22 07:31:18;;;;;;;23.60;18.07;;;;;;;7.85;71.98;96467.33;1776164;78;21044;-77
2021/04/22 07:33:44;;;;;;;19.92;16.67;;;;;;;7.80;72.15;96467.80;1797458;79;21227;-78
2021/04/22 07:36:10;;;;;;;23.10;18.10;;;;;;;7.72;72.05;96463.93;1791552;78;21507;-77
2021/04/22 07:38:36;;;;;;;20.85;16.85;;;;;;;7.54;72.36;96440.01;1790397;78;21284;-78
2021/04/22 07:41:03;;;;;;;25.82;20.15;;;;;;;7.66;72.66;96470.25;1785968;78;21335;-77
2021/04/22 07:43:29;;;;;;;23.45;19.52;;;;;;;7.62;72.87;96469.73;1756420;79;21100;-82
2021/04/22 07:45:55;;;;;;;21.65;18.23;;;;;;;7.63;72.99;96473.13;1755609;79;21120;-76
2021/04/22 07:48:21;;;;;;;23.70;19.23;;;;;;;7.61;72.73;96469.90;1761156;80;21319;-76
2021/04/22 07:50:47;;;;;;;21.93;19.25;;;;;;;7.62;72.90;96476.20;1757975;79;21307;-76
2021/04/22 07:53:13;;;;;;;27.52;23.57;;;;;;;7.61;73.02;96475.07;1758064;80;21105;-77
2021/04/22 07:55:44;;;;;;;26.55;22.73;;;;;;;7.63;73.21;96484.28;1746995;79;21073;-78
2021/04/22 07:58:14;;;;;;;26.62;22.40;;;;;;;7.62;73.33;96482.66;1751747;79;21156;-78
2021/04/22 08:00:45;;;;;;;24.82;20.05;;;;;;;7.62;73.55;96489.13;1752004;79;21242;-78
2021/04/22 08:03:13;;;;;;;23.10;20.57;;;;;;;7.58;73.35;96496.89;1745943;79;21342;-76
2021/04/22 08:05:39;;;;;;;24.10;20.50;;;;;;;7.55;73.27;96497.22;1747336;79;21104;-76
2021/04/22 08:08:08;;;;;;;24.27;20.43;;;;;;;7.53;73.45;96490.91;1747213;80;21417;-78
2021/04/22 08:10:37;;;;;;;25.05;19.02;;;;;;;7.52;73.42;96495.77;1756299;79;21222;-76
2021/04/22 08:13:04;;;;;;;22.25;19.77;;;;;;;7.51;73.52;96501.09;1741192;79;21861;-78
2021/04/22 08:15:32;;;;;;;26.42;21.85;;;;;;;7.47;73.86;96504.95;1748224;79;21451;-78
2021/04/22 08:17:57;;;;;;;23.98;21.48;;;;;;;7.41;73.89;96506.41;1739520;80;21124;-76
2021/04/22 08:20:25;;;;;;;22.95;19.35;;;;;;;7.36;73.82;96515.61;1751282;79;21084;-76
2021/04/22 08:22:57;;;;;;;19.52;16.62;;;;;;;7.31;73.94;96523.00;1745026;79;21301;-76
2021/04/22 08:25:32;;;;;;;;;;;;;;;7.23;73.71;96532.37;1757675;79;21128;-77
2021/04/22 08:27:58;;;;;;;16.93;12.43;;;;;;;7.10;73.17;96542.33;1746572;79;20138;-76
2021/04/22 08:30:32;;;;;;;18.17;13.13;;;;;;;6.97;73.02;96530.33;1750535;79;21246;-78
2021/04/22 08:33:05;;;;;;;17.60;13.53;;;;;;;6.90;73.17;96534.50;1793846;79;22559;-78
2021/04/22 08:35:31;;;;;;;16.52;13.58;;;;;;;6.76;73.42;96539.77;1760141;80;21067;-82
2021/04/22 08:37:57;;;;;;;20.25;14.20;;;;;;;6.69;73.45;96544.42;1731920;81;21121;-76
2021/04/22 08:40:24;;;;;;;21.05;17.05;;;;;;;6.67;73.84;96538.57;1760578;80;21301;-78
2021/04/22 08:42:50;;;;;;;18.00;14.45;;;;;;;6.61;73.75;96541.30;1759471;80;21181;-78
2021/04/22 08:45:17;;;;;;;19.73;15.18;;;;;;;6.57;73.79;96542.09;1749937;80;21146;-78
2021/04/22 08:47:43;;;;;;;21.75;16.85;;;;;;;6.53;74.03;96552.88;1742276;81;21110;-76
2021/04/22 08:50:16;;;;;;;19.70;16.65;;;;;;;6.56;74.27;96558.55;1761072;80;21098;-79
2021/04/22 08:52:43;;;;;;;19.77;17.23;;;;;;;6.60;74.29;96558.56;1755069;80;21094;-77
2021/04/22 08:55:10;;;;;;;15.63;11.78;;;;;;;6.59;74.26;96553.55;1754773;80;21114;-77
2021/04/22 08:57:36;;;;;;;15.80;11.80;;;;;;;6.49;74.14;96576.06;1760564;80;21248;-78
2021/04/22 09:00:08;;;;;;;8.70;7.50;;;;;;;6.30;74.16;96573.19;1756802;80;21309;-76
2021/04/22 09:02:34;;;;;;;9.50;7.97;;;;;;;6.19;74.46;96578.13;1761472;80;21129;-77
2021/04/22 09:05:00;;;;;;;13.70;10.53;;;;;;;5.96;74.71;96582.92;1757172;80;21094;-80
2021/04/22 09:07:27;;;;;;;15.18;12.07;;;;;;;5.80;74.85;96590.48;1757726;80;21321;-77
2021/04/22 09:09:53;;;;;;;15.25;11.15;;;;;;;5.68;75.07;96600.19;1755598;81;21123;-77
2021/04/22 09:12:20;;;;;;;11.88;10.00;;;;;;;5.58;75.37;96603.80;1756696;80;21494;-77
2021/04/22 09:14:59;;;;;;;10.85;9.58;;;;;;;5.50;75.26;96616.11;1759727;80;21099;-76
2021/04/22 09:17:25;;;;;;;8.10;6.47;;;;;;;5.42;75.35;96619.42;1755402;80;21087;-76
2021/04/22 09:19:52;;;;;;;11.25;9.03;;;;;;;5.40;75.20;96618.75;1749664;80;21481;-77
2021/04/22 09:22:19;;;;;;;11.30;8.63;;;;;;;5.40;75.63;96617.47;1757792;80;21142;-77
2021/04/22 09:24:45;;;;;;;9.25;7.95;;;;;;;5.48;75.88;96615.92;1745091;80;21063;-77
2021/04/22 09:27:16;;;;;;;13.05;9.30;;;;;;;5.53;75.73;96614.55;1754330;80;21301;-76
2021/04/22 09:29:46;;;;;;;11.68;9.18;;;;;;;5.47;75.77;96620.74;1760656;80;21106;-77
2021/04/22 09:32:27;;;;;;;7.83;6.22;;;;;;;5.38;75.55;96623.24;1756809;80;21087;-78
2021/04/22 09:34:57;;;;;;;8.28;7.37;;;;;;;5.25;75.20;96625.34;1741806;80;21129;-76
2021/04/22 09:37:39;;;;;;;9.23;7.67;;;;;;;5.12;75.52;96623.55;1749820;80;21314;-82
2021/04/22 09:40:30;;;;;;;10.60;7.17;;;;;;;5.11;75.59;96634.33;1739083;80;21255;-78
2021/04/22 09:42:59;;;;;;;14.43;10.63;;;;;;;5.10;75.60;96630.14;1759515;80;21125;-76
2021/04/22 09:45:28;;;;;;;12.15;9.35;;;;;;;5.03;75.69;96635.98;1758115;80;21153;-76
2021/04/22 09:47:55;;;;;;;14.07;11.48;;;;;;;4.92;75.31;96634.88;1745113;80;21090;-78
2021/04/22 09:50:25;;;;;;;6.90;6.20;;;;;;;4.83;75.86;96636.05;1758946;81;21118;-78
2021/04/22 09:52:55;;;;;;;7.65;6.67;;;;;;;4.79;75.73;96643.72;1753473;80;21424;-78
2021/04/22 09:55:32;;;;;;;6.95;6.22;;;;;;;4.74;75.89;96654.11;1760688;80;21078;-78
2021/04/22 09:57:58;;;;;;;6.55;4.75;;;;;;;4.66;75.83;96665.08;1757970;80;21110;-75
2021/04/22 10:00:28;;;;;;;6.58;4.97;;;;;;;4.52;75.24;96665.02;1759705;80;21067;-76
2021/04/22 10:02:58;;;;;;;4.72;3.85;;;;;;;4.34;75.09;96655.56;1759609;80;21217;-78
2021/04/22 10:05:31;;;;;;;6.45;5.30;;;;;;;4.26;74.32;96620.72;1757412;80;21067;-76
2021/04/22 10:08:15;;;;;;;6.40;5.62;;;;;;;4.03;74.42;96654.87;1754572;80;21146;-77
2021/04/22 10:11:01;;;;;;;44.85;30.97;;;;;;;3.85;74.78;96668.38;1753427;80;21225;-77
2021/04/22 10:13:29;;;;;;;66.12;41.70;;;;;;;3.82;75.40;96654.52;1749526;80;21321;-77
2021/04/22 10:15:58;;;;;;;212.63;118.22;;;;;;;3.82;75.70;96651.95;1757366;80;21137;-77
2021/04/22 10:18:39;;;;;;;67.62;41.70;;;;;;;3.84;75.85;96653.91;1759484;80;21083;-76
2021/04/22 10:21:05;;;;;;;18.17;16.05;;;;;;;3.77;75.90;96659.26;1754962;80;21090;-77
2021/04/22 10:23:32;;;;;;;13.28;11.88;;;;;;;3.72;76.14;96656.25;1753535;80;21094;-77
2021/04/22 10:25:58;;;;;;;11.83;10.55;;;;;;;3.73;76.48;96659.16;1755512;80;21095;-76
2021/04/22 10:28:25;;;;;;;9.78;8.75;;;;;;;3.83;77.22;96648.44;1759626;80;21099;-77
2021/04/22 10:30:55;;;;;;;10.68;9.58;;;;;;;3.83;77.22;96648.44;1756707;80;21155;-77
2021/04/22 10:33:20;;;;;;;9.35;7.97;;;;;;;3.94;77.67;96651.84;1741526;81;21934;-77
2021/04/22 10:35:49;;;;;;;12.53;8.50;;;;;;;4.03;77.68;96654.40;1743055;81;21329;-77
2021/04/22 10:38:21;;;;;;;9.23;8.30;;;;;;;4.04;77.50;96658.59;1715011;83;21122;-77
2021/04/22 10:40:50;;;;;;;14.20;12.25;;;;;;;4.04;77.75;96644.45;1743438;81;21075;-77
2021/04/22 10:43:21;;;;;;;13.20;11.40;;;;;;;4.05;77.72;96648.64;1744092;81;21345;-77
2021/04/22 10:45:50;;;;;;;9.10;7.65;;;;;;;4.08;77.73;96636.83;1730129;80;21135;-77
2021/04/22 10:48:17;;;;;;;11.18;8.20;;;;;;;4.15;77.72;96630.19;1734621;80;21099;-78
2021/04/22 10:50:46;;;;;;;9.20;7.30;;;;;;;4.25;77.76;96622.48;1744080;80;21529;-78
2021/04/22 10:53:15;;;;;;;11.20;8.58;;;;;;;4.37;77.65;96616.69;1743400;81;21123;-79
2021/04/22 10:55:46;;;;;;;15.43;9.78;;;;;;;4.50;77.63;96619.79;1745602;80;21072;-79
2021/04/22 10:58:25;;;;;;;21.00;12.23;;;;;;;4.56;77.64;96620.55;1759192;80;21094;-78
2021/04/22 11:01:03;;;;;;;19.02;13.62;;;;;;;4.60;77.39;96617.22;1748586;80;21134;-76
2021/04/22 11:03:39;;;;;;;27.00;16.73;;;;;;;4.60;77.35;96610.30;1736022;80;21099;-77
2021/04/22 11:06:09;;;;;;;17.73;12.55;;;;;;;4.65;77.48;96627.42;1728503;81;21149;-76
2021/04/22 11:08:41;;;;;;;12.13;10.82;;;;;;;4.71;77.09;96622.98;1736840;80;21130;-77
2021/04/22 11:11:21;;;;;;;13.47;10.87;;;;;;;4.69;76.96;96628.76;1739367;80;21138;-77
2021/04/22 11:13:49;;;;;;;17.15;13.10;;;;;;;4.70;77.24;96632.95;1744120;80;21111;-77
2021/04/22 11:16:16;;;;;;;16.05;11.50;;;;;;;4.72;77.21;96634.94;1739104;80;21114;-76
2021/04/22 11:18:44;;;;;;;14.28;11.43;;;;;;;4.71;77.08;96643.58;1741381;80;21284;-79
2021/04/22 11:21:31;;;;;;;18.05;15.05;;;;;;;4.71;77.16;96636.34;1740966;81;21100;-77
2021/04/22 11:24:00;;;;;;;18.77;12.65;;;;;;;4.68;76.82;96637.43;1747168;81;21234;-77
2021/04/22 11:26:33;;;;;;;18.25;11.38;;;;;;;4.67;77.06;96638.86;1747316;81;21147;-77
2021/04/22 11:29:13;;;;;;;18.60;13.20;;;;;;;4.68;77.13;96633.57;1744558;81;21225;-76
2021/04/22 11:31:46;;;;;;;20.75;14.58;;;;;;;4.71;77.09;96634.57;1744789;80;21091;-77